• Join FlightAware (Why Join?)
  • Login
  • US Flag 
01:13AM EDT


 

Airport Tracker/Info


-or-


 

Live Flight TrackerFlight Track Log ✈ AWE2785 ✈ 05-May-2013 ✈ KCLT - KSTL

Flight Track Log - Related Links

Times and Time Zones

All times are in EDT time to prevent confusion due to time zone crossing. See the AWE2785 flight status page for this flight to view local times or setup timezone preferences in your user account.

Time Position Orientation Groundspeed Altitude Reporting Facility
EDT Latitude Longitude Course Direction KTS MPH feet Rate Location/Type
11:55AM 35.2331 -80.9594 270° West 172 198 1,800  Level Atlanta Center
11:56AM 35.2864 -81.0033 326° Northwest 266 306 3,000 1,860 Climbing Atlanta Center
11:57AM 35.2906 -81.0847 274° West 298 343 5,300 2,640 Climbing Atlanta Center
11:58AM 35.2649 -81.2063 282° West  Level FlightAware Approximate
11:58AM 35.2761 -81.1817 260° West 300 345 7,900  Level Atlanta Center
11:59AM 35.2196 -81.3265 242° Southwest  Level FlightAware Approximate
11:59AM 35.2469 -81.2769 249° West 292 336 8,800  Level Atlanta Center
12:00PM 35.1626 -81.4416 239° Southwest  Level FlightAware Approximate
12:00PM 35.2092 -81.3647 242° Southwest 303 349 10,600  Level Atlanta Center
12:01PM 35.1334 -81.5659 270° West  Level FlightAware Approximate
12:01PM 35.1633 -81.4653 241° Southwest 322 371 12,800  Level Atlanta Center
12:02PM 35.1428 -81.5800 258° West 345 397 15,000 2,400 Climbing Atlanta Center
12:03PM 35.1347 -81.6997 265° West 361 415 17,700 2,100 Climbing Atlanta Center
12:04PM 35.1264 -81.8067 265° West 361 415 19,200 1,260 Climbing Atlanta Center
12:05PM 35.1158 -81.9314 264° West 366 421 20,300 1,500 Climbing Atlanta Center
12:06PM 35.1056 -82.0586 264° West 377 434 22,200 1,740 Climbing Atlanta Center
12:07PM 35.0950 -82.1856 264° West 383 441 23,800 1,440 Climbing Atlanta Center
12:08PM 35.1056 -82.3353 275° West 395 455 25,100 1,260 Climbing Atlanta Center
12:09PM 35.1408 -82.4692 288° West 403 464 26,400 1,200 Climbing Atlanta Center
12:10PM 35.1758 -82.6133 287° West 422 486 27,600 1,020 Climbing Atlanta Center
12:11PM 35.2150 -82.7525 289° West 430 495 28,500 960 Climbing Atlanta Center
12:12PM 35.2519 -82.9069 286° West 440 506 29,600 1,140 Climbing Atlanta Center
12:13PM 35.2844 -83.0389 287° West 458 527 30,800 1,200 Climbing Atlanta Center
12:14PM 35.3253 -83.2014 287° West 453 521 32,100 1,140 Climbing Atlanta Center
12:15PM 35.3636 -83.3461 288° West 453 521 33,100 900 Climbing Atlanta Center
12:16PM 35.3978 -83.4961 286° West 453 521 34,000 420 Climbing Atlanta Center
12:17PM 35.4361 -83.6489 287° West 453 521 34,000  Level Atlanta Center
12:18PM 35.4739 -83.8042 287° West 465 535 34,000  Level Atlanta Center
12:19PM 35.5117 -83.9572 287° West 471 542 34,000  Level Atlanta Center
12:20PM 35.5492 -84.1128 287° West 471 542 34,000  Level Atlanta Center
12:21PM 35.5867 -84.2661 287° West 471 542 34,000  Level Atlanta Center
12:22PM 35.6217 -84.4194 286° West 471 542 34,000  Level Atlanta Center
12:24PM 35.7006 -84.7536 286° West 488 562 34,000  Level Memphis Center
12:25PM 35.7317 -84.8947 285° West 488 562 34,000  Level Memphis Center
12:26PM 35.7697 -85.0508 287° West 483 556 34,000  Level Memphis Center
12:27PM 35.8053 -85.2019 286° West 476 548 34,000  Level Memphis Center
12:28PM 35.8408 -85.3586 286° West 470 541 34,000  Level Memphis Center
12:29PM 35.8761 -85.5100 286° West 470 541 34,000  Level Memphis Center
12:30PM 35.9092 -85.6619 285° West 470 541 34,000  Level Memphis Center
12:31PM 35.9442 -85.8164 286° West 470 541 34,000  Level Memphis Center
12:32PM 35.9808 -85.9681 287° West 470 541 34,000  Level Memphis Center
12:33PM 36.0156 -86.1253 285° West 470 541 34,000  Level Memphis Center
12:34PM 36.0522 -86.2931 285° West 470 541 34,000  Level Memphis Center
12:35PM 36.0867 -86.4506 285° West 470 541 34,000  Level Memphis Center
12:36PM 36.1186 -86.6083 284° West 475 547 34,000  Level Memphis Center
12:37PM 36.1669 -86.7656 291° West 475 547 34,000  Level Memphis Center
12:38PM 36.2278 -86.9197 296° West 486 559 34,000  Level Memphis Center
12:39PM 36.2814 -87.0589 296° West 503 579 34,000  Level Memphis Center
12:40PM 36.3394 -87.2086 296° West 496 571 34,000  Level Memphis Center
12:41PM 36.3975 -87.3558 296° West 485 558 34,000  Level Memphis Center
12:42PM 36.4597 -87.5214 295° West 478 550 34,000  Level Memphis Center
12:43PM 36.5194 -87.6742 296° West 483 556 34,000  Level Memphis Center
12:44PM 36.5789 -87.8272 296° West 488 562 34,000  Level Memphis Center
12:45PM 36.6358 -87.9753 296° West 488 562 34,000  Level Memphis Center
12:46PM 36.6992 -88.1261 298° West 488 562 34,000  Level Memphis Center
12:47PM 36.7561 -88.2825 294° West 488 562 34,000  Level Memphis Center
12:48PM 36.8147 -88.4367 295° West 488 562 34,000  Level Memphis Center
12:49PM 36.8714 -88.5908 295° West 488 562 34,000  Level Memphis Center
12:50PM 36.9275 -88.7453 294° West 488 562 34,000  Level Memphis Center
12:51PM 36.9858 -88.8972 296° West 493 567 34,000 -600 Level Memphis Center
12:52PM 37.0397 -89.0550 293° West 493 567 32,900 -1,980 Descending Memphis Center
12:54PM 37.1264 -89.2919 295° West 489 563 29,000 -2,400 Descending Kansas City Center
12:55PM 37.1822 -89.4444 295° West 485 558 26,800 -1,500 Descending Kansas City Center
12:56PM 37.2517 -89.5792 303° West 471 542 26,000 -480 Descending Kansas City Center
12:57PM 37.3586 -89.6431 335° Northwest 431 496 25,900 -780 Descending Kansas City Center
12:58PM 37.4650 -89.7025 336° Northwest 420 483 24,400 -1,680 Descending Kansas City Center
12:59PM 37.5858 -89.7683 337° Northwest 412 474 22,500 -1,560 Descending Kansas City Center
01:00PM 37.6847 -89.8219 337° Northwest 396 456 21,200 -1,620 Descending Kansas City Center
01:01PM 37.7789 -89.8744 336° Northwest 376 433 19,200 -2,100 Descending Kansas City Center
01:02PM 37.8825 -89.9308 337° Northwest 362 417 16,900 -2,160 Descending Kansas City Center
01:03PM 37.9689 -89.9783 337° Northwest 343 395 14,800 -2,100 Descending Kansas City Center
01:04PM 38.0631 -90.0303 337° Northwest 342 394 12,600 -2,040 Descending Kansas City Center
01:05PM 38.1433 -90.0722 338° Northwest 326 375 10,700 -1,440 Descending Kansas City Center
01:06PM 38.2253 -90.0789 356° North 306 352 9,700 -900 Descending Kansas City Center
01:07PM 38.2983 -90.0872 355° North 284 327 8,900 -1,020 Descending Kansas City Center
01:08PM 38.3661 -90.1169 341° North 272 313 7,700 -1,440 Descending Kansas City Center
01:10PM 38.4311 -90.1542 336° Northwest 263 303 6,000 -1,980 Descending Kansas City Center
01:11PM 38.5103 -90.1944 338° Northwest 259 298 3,700 -1,200 Descending Kansas City Center
01:12PM 38.5789 -90.2117 349° North 255 293 3,600 -540 Descending Kansas City Center
01:13PM 38.6433 -90.2286 348° North 248 285 2,700 -720 Descending Kansas City Center
01:14PM 38.6953 -90.2525 340° North 215 247 2,200 -600 Descending Kansas City Center
01:15PM 38.7172 -90.2953 303° West 170 196 1,500 -780 Descending Kansas City Center
01:16PM 38.7419 -90.3447 303° West 148 170 600 -900 Descending Kansas City Center